createdAt,value
2022-11-07T00:00:36.650Z,5.35
2022-11-07T00:03:05.069Z,5.75
2022-11-07T00:05:33.461Z,5.05
2022-11-07T00:08:03.741Z,4.93
2022-11-07T00:10:32.113Z,6.07
2022-11-07T00:13:00.603Z,5.28
2022-11-07T00:15:28.957Z,5.88
2022-11-07T00:17:58.242Z,5.60
2022-11-07T00:20:26.603Z,5.40
2022-11-07T00:22:54.961Z,5.43
2022-11-07T00:25:23.971Z,5.20
2022-11-07T00:27:52.275Z,5.00
2022-11-07T00:30:20.566Z,4.68
2022-11-07T00:32:48.957Z,4.90
2022-11-07T00:35:17.525Z,4.68
2022-11-07T00:37:45.791Z,5.35
2022-11-07T00:40:16.151Z,4.97
2022-11-07T00:42:44.487Z,5.00
2022-11-07T00:45:13.654Z,4.13
2022-11-07T00:47:41.909Z,4.32
2022-11-07T00:50:10.513Z,5.13
2022-11-07T00:52:38.793Z,4.40
2022-11-07T00:55:07.541Z,4.80
2022-11-07T00:57:36.063Z,4.45
2022-11-07T01:00:05.894Z,4.88
2022-11-07T01:02:34.866Z,4.20
2022-11-07T01:05:12.618Z,4.35
2022-11-07T01:07:45.348Z,4.40
2022-11-07T01:10:14.408Z,4.63
2022-11-07T01:12:42.794Z,4.50
2022-11-07T01:15:11.392Z,4.45
2022-11-07T01:17:40.004Z,4.70
2022-11-07T01:20:09.272Z,4.70
2022-11-07T01:22:37.878Z,4.35
2022-11-07T01:25:07.052Z,3.40
2022-11-07T01:27:35.564Z,3.45
2022-11-07T01:30:04.568Z,3.97
2022-11-07T01:32:33.132Z,3.97
2022-11-07T01:35:02.144Z,3.83
2022-11-07T01:37:30.523Z,4.07
2022-11-07T01:39:58.796Z,4.10
2022-11-07T01:42:30.157Z,4.60
2022-11-07T01:44:59.994Z,4.40
2022-11-07T01:47:38.587Z,3.90
2022-11-07T01:50:08.039Z,4.15
2022-11-07T01:52:39.835Z,3.70
2022-11-07T01:55:32.443Z,4.30
2022-11-07T01:58:05.067Z,4.43
2022-11-07T02:00:35.913Z,3.65
2022-11-07T02:03:16.237Z,3.58
2022-11-07T02:05:55.111Z,3.83
2022-11-07T02:08:24.704Z,3.70
2022-11-07T02:10:54.104Z,4.15
2022-11-07T02:13:27.388Z,4.35
2022-11-07T02:15:56.090Z,3.70
2022-11-07T02:18:27.255Z,3.50
2022-11-07T02:20:59.907Z,4.63
2022-11-07T02:23:40.779Z,3.22
2022-11-07T02:26:09.467Z,4.07
2022-11-07T02:28:40.930Z,4.38
2022-11-07T02:31:09.299Z,4.30
2022-11-07T02:33:37.656Z,3.33
2022-11-07T02:36:06.256Z,3.45
2022-11-07T02:38:37.121Z,4.20
2022-11-07T02:41:10.434Z,3.28
2022-11-07T02:43:42.961Z,3.40
2022-11-07T02:46:13.592Z,3.38
2022-11-07T02:48:50.777Z,3.20
2022-11-07T02:51:19.148Z,3.20
2022-11-07T02:53:47.653Z,2.97
2022-11-07T02:56:17.826Z,3.20
2022-11-07T02:58:46.114Z,3.42
2022-11-07T03:01:15.419Z,2.92
2022-11-07T03:03:46.936Z,3.38
2022-11-07T03:06:17.547Z,3.17
2022-11-07T03:08:46.432Z,3.17
2022-11-07T03:11:19.798Z,2.88
2022-11-07T03:13:50.760Z,3.53
2022-11-07T03:16:20.101Z,2.55
2022-11-07T03:18:48.539Z,2.80
2022-11-07T03:21:17.147Z,3.42
2022-11-07T03:23:45.423Z,3.10
2022-11-07T03:26:13.809Z,2.95
2022-11-07T03:28:47.608Z,3.55
2022-11-07T03:31:15.988Z,2.78
2022-11-07T03:33:44.278Z,3.33
2022-11-07T03:36:12.580Z,3.00
2022-11-07T03:38:40.911Z,2.85
2022-11-07T03:41:09.194Z,2.70
2022-11-07T03:43:37.484Z,3.65
2022-11-07T03:46:05.982Z,3.25
2022-11-07T03:48:35.851Z,3.40
2022-11-07T03:51:05.319Z,3.30
2022-11-07T03:53:33.685Z,3.42
2022-11-07T03:56:08.201Z,3.85
2022-11-07T03:58:37.592Z,3.42
2022-11-07T04:01:10.101Z,3.80
2022-11-07T04:03:38.516Z,4.00
2022-11-07T04:06:07.107Z,4.30
2022-11-07T04:08:36.099Z,4.05
2022-11-07T04:11:05.022Z,4.32
2022-11-07T04:13:52.095Z,4.20
2022-11-07T04:16:39.182Z,3.10
2022-11-07T04:19:07.612Z,3.35
2022-11-07T04:21:36.993Z,4.05
2022-11-07T04:24:06.624Z,4.03
2022-11-07T04:26:53.594Z,4.00
2022-11-07T04:29:21.918Z,3.50
2022-11-07T04:31:52.583Z,3.70
2022-11-07T04:34:21.138Z,4.68
2022-11-07T04:36:49.389Z,4.28
2022-11-07T04:39:17.793Z,4.72
2022-11-07T04:41:47.046Z,3.63
2022-11-07T04:44:15.353Z,3.85
2022-11-07T04:46:43.968Z,3.40
2022-11-07T04:49:15.231Z,3.47
2022-11-07T04:51:44.607Z,3.78
2022-11-07T04:54:14.385Z,4.32
2022-11-07T04:56:42.738Z,4.47
2022-11-07T04:59:12.505Z,3.97
2022-11-07T05:01:40.829Z,3.70
2022-11-07T05:04:09.363Z,3.65
2022-11-07T05:06:38.198Z,3.58
2022-11-07T05:09:08.779Z,3.53
2022-11-07T05:11:37.247Z,4.93
2022-11-07T05:14:06.636Z,4.18
2022-11-07T05:16:38.998Z,4.25
2022-11-07T05:19:07.287Z,3.90
2022-11-07T05:21:35.610Z,4.35
2022-11-07T05:24:04.137Z,4.20
2022-11-07T05:26:32.448Z,4.35
2022-11-07T05:29:00.937Z,4.38
2022-11-07T05:31:29.302Z,4.20
2022-11-07T05:33:57.573Z,4.53
2022-11-07T05:36:26.177Z,4.70
2022-11-07T05:38:54.963Z,5.30
2022-11-07T05:41:23.286Z,5.70
2022-11-07T05:43:51.761Z,5.13
2022-11-07T05:46:20.072Z,5.65
2022-11-07T05:48:48.774Z,5.38
2022-11-07T05:51:17.091Z,4.53
2022-11-07T05:53:45.459Z,4.20
2022-11-07T05:56:13.804Z,4.20
2022-11-07T05:58:42.236Z,5.18
2022-11-07T06:01:10.735Z,4.95
2022-11-07T06:03:39.135Z,5.45
2022-11-07T06:06:08.895Z,4.88
2022-11-07T06:08:37.223Z,5.43
2022-11-07T06:11:06.365Z,5.38
2022-11-07T06:13:35.042Z,6.03
2022-11-07T06:16:03.892Z,6.07
2022-11-07T06:18:33.291Z,5.50
2022-11-07T06:21:04.127Z,5.88
2022-11-07T06:23:34.198Z,5.68
2022-11-07T06:26:02.436Z,5.97
2022-11-07T06:28:31.129Z,5.03
2022-11-07T06:31:00.991Z,6.75
2022-11-07T06:33:32.178Z,6.37
2022-11-07T06:36:08.679Z,7.63
2022-11-07T06:38:38.440Z,6.95
2022-11-07T06:41:08.603Z,6.23
2022-11-07T06:43:37.740Z,5.75
2022-11-07T06:46:09.909Z,4.75
2022-11-07T06:48:39.215Z,5.50
2022-11-07T06:51:09.984Z,5.93
2022-11-07T06:53:38.853Z,5.15
2022-11-07T06:56:10.163Z,5.80
2022-11-07T06:58:38.453Z,5.75
2022-11-07T07:01:13.552Z,5.88
2022-11-07T07:03:43.246Z,5.72
2022-11-07T07:06:16.724Z,5.97
2022-11-07T07:08:48.197Z,4.85
2022-11-07T07:11:16.812Z,4.97
2022-11-07T07:13:45.571Z,5.57
2022-11-07T07:16:14.244Z,5.10
2022-11-07T07:18:42.669Z,4.75
2022-11-07T07:21:13.557Z,4.60
2022-11-07T07:23:42.455Z,5.05
2022-11-07T07:26:15.201Z,4.85
2022-11-07T07:28:44.358Z,4.63
2022-11-07T07:31:15.682Z,3.72
2022-11-07T07:33:46.685Z,4.88
2022-11-07T07:36:20.490Z,3.85
2022-11-07T07:38:50.356Z,3.83
2022-11-07T07:41:19.187Z,4.00
2022-11-07T07:43:47.633Z,5.22
2022-11-07T07:46:21.917Z,5.45
2022-11-07T07:48:50.393Z,4.85
2022-11-07T07:51:18.688Z,5.13
2022-11-07T07:53:47.246Z,5.97
2022-11-07T07:56:17.617Z,6.38
2022-11-07T07:58:46.502Z,7.40
2022-11-07T08:01:16.272Z,6.78
2022-11-07T08:04:00.675Z,7.18
2022-11-07T08:06:30.607Z,6.55
2022-11-07T08:08:58.985Z,7.65
2022-11-07T08:11:27.551Z,6.70
2022-11-07T08:14:00.826Z,7.50
2022-11-07T08:16:29.985Z,7.70
2022-11-07T08:18:58.320Z,7.45
2022-11-07T08:21:26.715Z,6.93
2022-11-07T08:23:56.378Z,6.30
2022-11-07T08:26:26.336Z,7.32
2022-11-07T08:28:55.069Z,6.30
2022-11-07T08:31:23.747Z,7.00
2022-11-07T08:33:54.942Z,8.18
2022-11-07T08:36:23.306Z,7.63
2022-11-07T08:38:51.674Z,7.15
2022-11-07T08:41:22.324Z,7.80
2022-11-07T08:43:51.062Z,7.22
2022-11-07T08:46:19.601Z,7.43
2022-11-07T08:48:48.045Z,10.43
2022-11-07T08:51:16.447Z,6.50
2022-11-07T08:53:44.923Z,7.60
2022-11-07T08:56:13.235Z,7.93
2022-11-07T08:58:41.827Z,7.60
2022-11-07T09:01:10.517Z,8.20
2022-11-07T09:03:51.763Z,7.28
2022-11-07T09:06:25.153Z,7.22
2022-11-07T09:08:53.657Z,7.65
2022-11-07T09:11:22.169Z,7.43
2022-11-07T09:13:50.627Z,7.63
2022-11-07T09:16:19.197Z,8.23
2022-11-07T09:18:49.557Z,7.75
2022-11-07T09:21:22.914Z,7.15
2022-11-07T09:23:52.058Z,6.93
2022-11-07T09:26:23.197Z,6.75
2022-11-07T09:28:55.053Z,7.35
2022-11-07T09:31:26.964Z,6.80
2022-11-07T09:33:55.745Z,7.82
2022-11-07T09:36:24.429Z,7.80
2022-11-07T09:38:56.124Z,6.70
2022-11-07T09:41:24.462Z,6.00
2022-11-07T09:44:15.183Z,5.90
2022-11-07T09:47:01.358Z,6.68
2022-11-07T09:49:35.921Z,6.40
2022-11-07T09:52:07.223Z,5.72
2022-11-07T09:54:41.695Z,5.72
2022-11-07T09:57:16.638Z,6.30
2022-11-07T09:59:56.845Z,4.70
2022-11-07T10:02:30.416Z,4.95
2022-11-07T10:05:02.343Z,4.93
2022-11-07T10:07:58.228Z,5.57
2022-11-07T10:10:48.404Z,5.20
2022-11-07T10:13:31.948Z,4.07
2022-11-07T10:16:16.595Z,4.40
2022-11-07T10:18:57.498Z,4.60
2022-11-07T10:21:54.652Z,4.28
2022-11-07T10:24:28.844Z,4.80
2022-11-07T10:26:58.427Z,4.40
2022-11-07T10:29:41.777Z,4.95
2022-11-07T10:32:22.980Z,4.90
2022-11-07T10:35:13.002Z,4.22
2022-11-07T10:37:41.290Z,4.13
2022-11-07T10:40:18.427Z,4.55
2022-11-07T10:42:49.099Z,4.40
2022-11-07T10:45:18.130Z,4.43
2022-11-07T10:48:00.212Z,4.35
2022-11-07T10:50:30.149Z,4.07
2022-11-07T10:53:09.465Z,4.32
2022-11-07T10:55:47.279Z,3.95
2022-11-07T10:58:28.024Z,4.18
2022-11-07T11:03:43.266Z,4.30
2022-11-07T11:06:18.241Z,3.20
2022-11-07T11:08:50.816Z,4.18
2022-11-07T11:11:19.273Z,3.35
2022-11-07T11:13:51.672Z,3.67
2022-11-07T11:16:28.668Z,3.40
2022-11-07T11:19:02.426Z,3.42
2022-11-07T11:21:42.611Z,3.53
2022-11-07T11:24:27.420Z,3.83
2022-11-07T11:27:17.443Z,3.85
2022-11-07T11:29:56.254Z,3.67
2022-11-07T11:32:32.074Z,3.40
2022-11-07T11:35:41.332Z,4.60
2022-11-07T11:38:42.110Z,4.15
2022-11-07T11:41:14.265Z,4.05
2022-11-07T11:43:50.709Z,3.92
2022-11-07T11:46:58.145Z,3.60
2022-11-07T11:49:40.285Z,4.93
2022-11-07T11:52:18.110Z,4.18
2022-11-07T11:54:48.614Z,3.90
2022-11-07T11:57:20.007Z,4.25
2022-11-07T12:00:14.724Z,4.30
2022-11-07T12:02:58.109Z,4.57
2022-11-07T12:05:49.614Z,3.58
2022-11-07T12:08:28.852Z,3.58
2022-11-07T12:11:21.527Z,4.25
2022-11-07T12:14:11.442Z,3.70
2022-11-07T12:16:51.297Z,4.65
2022-11-07T12:19:42.836Z,3.33
2022-11-07T12:22:27.778Z,3.58
2022-11-07T12:25:08.146Z,3.50
2022-11-07T12:27:54.558Z,3.85
2022-11-07T12:30:31.121Z,3.20
2022-11-07T12:33:17.926Z,3.85
2022-11-07T12:36:04.806Z,3.35
2022-11-07T12:38:56.358Z,3.50
2022-11-07T12:41:49.006Z,3.40
2022-11-07T12:44:38.092Z,4.00
2022-11-07T12:47:32.039Z,3.42
2022-11-07T12:50:27.681Z,4.13
2022-11-07T12:53:28.507Z,3.42
2022-11-07T12:56:02.996Z,3.53
2022-11-07T12:58:36.234Z,3.40
2022-11-07T13:01:06.140Z,3.00
2022-11-07T13:03:45.525Z,3.42
2022-11-07T13:06:18.571Z,2.75
2022-11-07T13:08:58.476Z,2.42
2022-11-07T13:11:42.220Z,3.17
2022-11-07T13:14:38.169Z,2.60
2022-11-07T13:17:27.763Z,2.28
2022-11-07T13:20:01.182Z,2.70
2022-11-07T13:22:41.161Z,3.03
2022-11-07T13:25:24.560Z,2.80
2022-11-07T13:28:31.198Z,2.83
2022-11-07T13:31:05.200Z,2.28
2022-11-07T13:33:37.133Z,2.72
2022-11-07T13:36:26.308Z,2.22
2022-11-07T13:38:59.478Z,2.60
2022-11-07T13:41:29.103Z,2.20
2022-11-07T13:44:26.112Z,2.85
2022-11-07T13:46:57.326Z,2.88
2022-11-07T13:49:32.456Z,2.35
2022-11-07T13:52:11.176Z,2.83
2022-11-07T13:54:39.851Z,3.17
2022-11-07T13:57:33.771Z,2.95
2022-11-07T14:00:14.905Z,2.92
2022-11-07T14:02:54.045Z,2.92
2022-11-07T14:05:26.094Z,3.20
2022-11-07T14:08:00.866Z,3.80
2022-11-07T14:10:40.159Z,3.75
2022-11-07T14:13:19.343Z,3.80
2022-11-07T14:15:54.983Z,4.10
2022-11-07T14:18:27.470Z,4.22
2022-11-07T14:20:58.069Z,4.68
2022-11-07T14:26:03.517Z,3.50
2022-11-07T14:28:42.090Z,3.55
2022-11-07T14:31:40.597Z,3.80
2022-11-07T14:34:21.501Z,3.47
2022-11-07T14:36:52.313Z,3.15
2022-11-07T14:41:50.817Z,3.97
2022-11-07T14:44:47.540Z,3.80
2022-11-07T14:47:23.439Z,5.32
2022-11-07T14:49:53.626Z,3.85
2022-11-07T14:52:26.784Z,4.82
2022-11-07T14:55:03.392Z,4.00
2022-11-07T14:57:35.891Z,3.97
2022-11-07T15:00:08.270Z,4.53
2022-11-07T15:02:37.169Z,4.18
2022-11-07T15:05:24.290Z,4.38
2022-11-07T15:07:53.833Z,5.50
2022-11-07T15:10:39.582Z,5.18
2022-11-07T15:13:27.898Z,4.43
2022-11-07T15:16:05.633Z,4.65
2022-11-07T15:18:39.682Z,4.68
2022-11-07T15:21:12.388Z,5.28
2022-11-07T15:23:41.194Z,5.03
2022-11-07T15:26:12.823Z,5.90
2022-11-07T15:28:54.805Z,6.35
2022-11-07T15:31:26.309Z,4.55
2022-11-07T15:33:57.588Z,5.88
2022-11-07T15:36:27.371Z,5.07
2022-11-07T15:38:56.925Z,5.30
2022-11-07T15:41:25.601Z,5.15
2022-11-07T15:43:53.981Z,5.80
2022-11-07T15:46:35.752Z,5.53
2022-11-07T15:49:05.599Z,4.72
2022-11-07T15:51:33.978Z,5.80
2022-11-07T15:54:02.624Z,4.88
2022-11-07T15:56:33.236Z,4.38
2022-11-07T15:59:01.577Z,4.47
2022-11-07T16:01:30.247Z,4.60
2022-11-07T16:04:00.283Z,5.03
2022-11-07T16:06:33.556Z,4.78
2022-11-07T16:09:03.117Z,5.80
2022-11-07T16:11:31.700Z,4.93
2022-11-07T16:14:36.409Z,5.05
2022-11-07T16:16:50.512Z,4.75
2022-11-07T16:19:21.846Z,5.38
2022-11-07T16:21:50.656Z,5.75
2022-11-07T16:24:18.948Z,5.05
2022-11-07T16:26:49.401Z,5.97
2022-11-07T16:33:19.148Z,5.68
2022-11-07T16:35:49.342Z,6.05
2022-11-07T16:38:20.099Z,6.00
2022-11-07T16:40:48.530Z,6.22
2022-11-07T16:43:17.250Z,6.40
2022-11-07T16:45:55.732Z,6.60
2022-11-07T16:48:27.199Z,6.60
2022-11-07T16:50:56.579Z,7.00
2022-11-07T16:53:26.135Z,7.00
2022-11-07T16:56:00.745Z,6.78
2022-11-07T16:58:39.305Z,6.88
2022-11-07T17:01:07.811Z,6.70
2022-11-07T17:03:36.839Z,5.78
2022-11-07T17:06:05.539Z,6.80
2022-11-07T17:08:39.880Z,7.15
2022-11-07T17:11:08.267Z,7.40
2022-11-07T17:13:36.548Z,7.15
2022-11-07T17:16:14.222Z,7.50
2022-11-07T17:18:43.204Z,7.40
2022-11-07T17:21:24.460Z,6.50
2022-11-07T17:23:54.527Z,6.53
2022-11-07T17:26:25.895Z,6.50
2022-11-07T17:28:54.224Z,7.13
2022-11-07T17:31:26.054Z,6.80
2022-11-07T17:33:54.765Z,5.93
2022-11-07T17:36:37.735Z,6.38
2022-11-07T17:39:12.196Z,6.53
2022-11-07T17:41:40.958Z,6.80
2022-11-07T17:44:10.212Z,6.22
2022-11-07T17:46:44.480Z,6.47
2022-11-07T17:49:16.656Z,5.75
2022-11-07T17:51:45.742Z,6.30
2022-11-07T17:54:15.384Z,5.90
2022-11-07T17:56:43.693Z,7.43
2022-11-07T17:59:17.396Z,5.75
2022-11-07T18:01:46.216Z,5.95
2022-11-07T18:04:14.828Z,5.70
2022-11-07T18:06:43.396Z,5.75
2022-11-07T18:09:16.173Z,6.40
2022-11-07T18:11:44.888Z,5.07
2022-11-07T18:14:14.294Z,6.05
2022-11-07T18:16:42.792Z,6.13
2022-11-07T18:19:11.215Z,6.15
2022-11-07T18:21:39.458Z,6.10
2022-11-07T18:24:09.128Z,6.53
2022-11-07T18:26:38.449Z,7.10
2022-11-07T18:29:14.099Z,5.50
2022-11-07T18:31:42.475Z,6.60
2022-11-07T18:34:12.626Z,6.07
2022-11-07T18:36:42.775Z,6.07
2022-11-07T18:39:19.265Z,6.20
2022-11-07T18:41:48.423Z,5.65
2022-11-07T18:44:17.037Z,6.05
2022-11-07T18:46:45.796Z,6.07
2022-11-07T18:49:15.570Z,5.85
2022-11-07T18:51:44.406Z,6.22
2022-11-07T18:54:13.859Z,6.70
2022-11-07T18:56:42.951Z,6.28
2022-11-07T18:59:11.563Z,5.93
2022-11-07T19:01:40.604Z,6.70
2022-11-07T19:04:10.473Z,6.50
2022-11-07T19:06:55.823Z,6.57
2022-11-07T19:09:30.305Z,6.47
2022-11-07T19:12:00.835Z,7.13
2022-11-07T19:14:30.597Z,7.28
2022-11-07T19:16:59.000Z,7.50
2022-11-07T19:19:27.767Z,6.38
2022-11-07T19:21:56.254Z,6.28
2022-11-07T19:24:24.783Z,7.15
2022-11-07T19:26:53.128Z,6.78
2022-11-07T19:29:21.424Z,8.05
2022-11-07T19:31:50.000Z,8.23
2022-11-07T19:34:19.311Z,8.45
2022-11-07T19:36:47.638Z,8.80
2022-11-07T19:39:16.051Z,8.02
2022-11-07T19:41:44.397Z,6.78
2022-11-07T19:44:12.920Z,6.85
2022-11-07T19:46:41.321Z,7.05
2022-11-07T19:49:09.883Z,6.75
2022-11-07T19:51:38.362Z,7.38
2022-11-07T19:54:08.457Z,6.63
2022-11-07T19:56:36.865Z,6.28
2022-11-07T19:59:05.237Z,5.97
2022-11-07T20:01:35.729Z,5.82
2022-11-07T20:04:10.040Z,6.20
2022-11-07T20:06:38.733Z,5.85
2022-11-07T20:09:09.895Z,5.70
2022-11-07T20:11:38.398Z,5.88
2022-11-07T20:14:06.913Z,5.07
2022-11-07T20:16:37.237Z,5.03
2022-11-07T20:19:05.908Z,4.63
2022-11-07T20:21:34.591Z,4.80
2022-11-07T20:24:05.456Z,4.85
2022-11-07T20:26:33.891Z,4.50
2022-11-07T20:29:02.706Z,4.80
2022-11-07T20:31:34.570Z,5.18
2022-11-07T20:34:06.559Z,4.47
2022-11-07T20:36:35.399Z,4.63
2022-11-07T20:39:04.418Z,4.15
2022-11-07T20:41:33.732Z,3.83
2022-11-07T20:44:07.954Z,4.90
2022-11-07T20:46:39.442Z,4.30
2022-11-07T20:49:13.952Z,4.82
2022-11-07T20:51:44.130Z,4.93
2022-11-07T20:54:16.225Z,4.22
2022-11-07T20:56:44.867Z,4.50
2022-11-07T20:59:13.139Z,3.60
2022-11-07T21:01:42.439Z,4.00
2022-11-07T21:04:14.791Z,4.03
2022-11-07T21:06:43.815Z,4.40
2022-11-07T21:09:13.042Z,4.07
2022-11-07T21:11:42.326Z,3.60
2022-11-07T21:14:14.005Z,4.47
2022-11-07T21:16:42.424Z,3.97
2022-11-07T21:19:14.662Z,4.20
2022-11-07T21:21:43.263Z,4.25
2022-11-07T21:24:11.719Z,3.88
2022-11-07T21:26:40.083Z,3.88
2022-11-07T21:29:09.356Z,4.18
2022-11-07T21:31:39.610Z,3.30
2022-11-07T21:34:09.298Z,3.60
2022-11-07T21:36:37.926Z,4.10
2022-11-07T21:39:07.679Z,3.13
2022-11-07T21:41:36.708Z,3.45
2022-11-07T21:44:05.347Z,2.97
2022-11-07T21:46:34.442Z,3.00
2022-11-07T21:49:04.588Z,3.17
2022-11-07T21:51:34.350Z,2.90
2022-11-07T21:54:04.653Z,2.80
2022-11-07T21:56:36.575Z,3.35
2022-11-07T21:59:12.199Z,2.55
2022-11-07T22:01:43.733Z,4.03
2022-11-07T22:04:13.339Z,3.30
2022-11-07T22:06:44.546Z,3.40
2022-11-07T22:09:18.073Z,2.78
2022-11-07T22:11:47.512Z,3.35
2022-11-07T22:14:21.332Z,2.55
2022-11-07T22:16:50.855Z,3.20
2022-11-07T22:19:19.403Z,3.58
2022-11-07T22:21:49.298Z,3.20
2022-11-07T22:24:18.005Z,2.85
2022-11-07T22:26:46.333Z,3.00
2022-11-07T22:29:14.654Z,3.17
2022-11-07T22:31:42.958Z,2.75
2022-11-07T22:34:11.454Z,3.10
2022-11-07T22:36:39.723Z,3.55
2022-11-07T22:39:08.151Z,3.58
2022-11-07T22:41:36.588Z,3.08
2022-11-07T22:44:05.096Z,2.83
2022-11-07T22:46:33.643Z,3.45
2022-11-07T22:49:02.050Z,3.03
2022-11-07T22:51:33.212Z,3.17
2022-11-07T22:54:12.267Z,2.85
2022-11-07T22:56:42.089Z,3.13
2022-11-07T22:59:11.019Z,3.83
2022-11-07T23:01:41.745Z,3.55
2022-11-07T23:06:42.236Z,2.95
2022-11-07T23:09:13.787Z,3.03
2022-11-07T23:11:46.346Z,3.72
2022-11-07T23:14:18.441Z,3.13
2022-11-07T23:16:49.540Z,3.72
2022-11-07T23:19:20.626Z,4.32
2022-11-07T23:21:51.557Z,3.15
2022-11-07T23:24:20.732Z,3.50
2022-11-07T23:26:49.438Z,3.38
2022-11-07T23:29:20.763Z,3.22
2022-11-07T23:31:50.714Z,3.05
2022-11-07T23:34:20.715Z,4.45
2022-11-07T23:36:52.866Z,3.30
2022-11-07T23:39:22.804Z,3.08
2022-11-07T23:41:54.066Z,3.55
2022-11-07T23:44:22.442Z,3.05
2022-11-07T23:47:13.513Z,3.42
2022-11-07T23:50:00.616Z,3.30
2022-11-07T23:52:29.567Z,2.45
2022-11-07T23:55:16.621Z,3.55
2022-11-07T23:58:03.442Z,4.20
